Station Historical Data
Daily Summary for May 19, 2017 Units:  Metric    English   Both
« Previous Day
Next Day »
Daily Weekly Monthly Yearly Custom
  High: Low: Average:
Temperature: 21.3 °C 12.3 °C 14 °C
Dew Point: 15.1 °C 6.7 °C 8.9 °C
Humidity: 84% 62% 72%
Wind Speed: 17.7km/h 0km/h 4.5km/h
Wind Gust: 20.9km/h - -
Wind- - SW
Pressure: 1022.6 hPa 1008.7 hPa -
Precipitation: 0 mm    
Historical Graphs
 
 
Tabular Data for May 19, 2017
Time Temperature Dew Point Pressure Wind Wind Speed Wind Gust Humidity Rainfall Rate (Hourly)
00:00 21.3 °C 14.9 °C 1008.7 hPa West 6.4 km/h 17.7 km/h 67% 0 mm
00:05 21.2 °C 14.8 °C 1009 hPa WSW 6.4 km/h 17.7 km/h 67% 0 mm
00:10 21.3 °C 15.1 °C 1009 hPa SW 8 km/h 19.3 km/h 68% 0 mm
00:15 21.1 °C 14.9 °C 1009.4 hPa SW 4.8 km/h 12.9 km/h 68% 0 mm
00:20 20.7 °C 14.8 °C 1009.4 hPa WSW 6.4 km/h 12.9 km/h 69% 0 mm
00:25 20.5 °C 14.8 °C 1009.4 hPa WSW 11.3 km/h 11.3 km/h 70% 0 mm
00:35 19.6 °C 13.9 °C 1009.4 hPa SSW 6.4 km/h 16.1 km/h 70% 0 mm
00:40 18.7 °C 13.5 °C 1009.4 hPa SSW 3.2 km/h 12.9 km/h 72% 0 mm
00:45 18 °C 13.3 °C 1009.4 hPa SSW 9.7 km/h 16.1 km/h 74% 0 mm
00:50 17.4 °C 12.9 °C 1009.7 hPa SSW 3.2 km/h 9.7 km/h 75% 0 mm
00:55 16.8 °C 12.8 °C 1009.4 hPa South 6.4 km/h 11.3 km/h 77% 0 mm
01:00 16.6 °C 12.7 °C 1009.7 hPa SSW 6.4 km/h 12.9 km/h 78% 0 mm
01:05 16.3 °C 12.4 °C 1009.4 hPa SW 6.4 km/h 14.5 km/h 78% 0 mm
01:10 16.2 °C 12.3 °C 1009.7 hPa SW 4.8 km/h 14.5 km/h 78% 0 mm
01:15 16.1 °C 12.4 °C 1009.7 hPa West 6.4 km/h 12.9 km/h 79% 0 mm
01:20 15.9 °C 12.3 °C 1009.7 hPa SSW 4.8 km/h 11.3 km/h 79% 0 mm
01:25 15.9 °C 12.2 °C 1009.7 hPa SW 3.2 km/h 9.7 km/h 79% 0 mm
01:30 15.8 °C 12.2 °C 1010 hPa SW 4.8 km/h 9.7 km/h 79% 0 mm
01:35 15.8 °C 12.2 °C 1009.7 hPa SW 3.2 km/h 8 km/h 79% 0 mm
01:40 15.7 °C 12.1 °C 1009.7 hPa SW 4.8 km/h 6.4 km/h 79% 0 mm
01:45 15.7 °C 12.1 °C 1009.7 hPa Calm   6.4 km/h 79% 0 mm
01:50 15.6 °C 12.1 °C 1009.7 hPa SW 1.6 km/h 3.2 km/h 80% 0 mm
01:55 15.5 °C 12.1 °C 1009.7 hPa SW 1.6 km/h 4.8 km/h 80% 0 mm
02:00 15.5 °C 12.1 °C 1009.7 hPa SSW 3.2 km/h 6.4 km/h 80% 0 mm
02:05 15.4 °C 12 °C 1009.7 hPa SSW 3.2 km/h 6.4 km/h 80% 0 mm
02:10 15.4 °C 12 °C 1009.7 hPa SSW 1.6 km/h 4.8 km/h 80% 0 mm
02:15 15.3 °C 11.8 °C 1010 hPa SW 1.6 km/h 6.4 km/h 80% 0 mm
02:20 15.2 °C 11.8 °C 1010 hPa SW 3.2 km/h 8 km/h 80% 0 mm
02:25 15.1 °C 11.9 °C 1010 hPa SW 1.6 km/h 4.8 km/h 81% 0 mm
02:30 15.1 °C 11.8 °C 1010 hPa SSW 3.2 km/h 11.3 km/h 81% 0 mm
02:35 14.9 °C 11.4 °C 1010.4 hPa SSW 1.6 km/h 8 km/h 80% 0 mm
02:40 14.7 °C 11.5 °C 1010.4 hPa SW 6.4 km/h 8 km/h 81% 0 mm
02:45 14.6 °C 11.3 °C 1010.4 hPa WSW 3.2 km/h 9.7 km/h 81% 0 mm
02:50 14.5 °C 11.3 °C 1010.4 hPa SW 4.8 km/h 11.3 km/h 81% 0 mm
02:55 14.4 °C 11.2 °C 1010.4 hPa SW 4.8 km/h 12.9 km/h 81% 0 mm
03:00 14.4 °C 11.2 °C 1010.4 hPa SW 6.4 km/h 12.9 km/h 81% 0 mm
03:05 14.4 °C 11.2 °C 1010.7 hPa WSW 1.6 km/h 8 km/h 81% 0 mm
03:10 14.3 °C 11.1 °C 1010.7 hPa SW 3.2 km/h 8 km/h 81% 0 mm
03:15 14.3 °C 11.1 °C 1010.4 hPa SW 6.4 km/h 9.7 km/h 81% 0 mm
03:20 14.3 °C 10.9 °C 1010.7 hPa SW 4.8 km/h 9.7 km/h 80% 0 mm
03:25 14.2 °C 11 °C 1010.7 hPa WSW 1.6 km/h 8 km/h 81% 0 mm
03:30 14.2 °C 10.9 °C 1010.7 hPa SSW 3.2 km/h 8 km/h 81% 0 mm
03:35 14.1 °C 10.8 °C 1010.7 hPa SSW 3.2 km/h 8 km/h 81% 0 mm
03:40 14 °C 10.8 °C 1010.7 hPa WSW 3.2 km/h 6.4 km/h 81% 0 mm
03:45 13.9 °C 10.9 °C 1011.1 hPa West 3.2 km/h 9.7 km/h 82% 0 mm
03:50 13.9 °C 10.9 °C 1011.1 hPa WSW 4.8 km/h 9.7 km/h 82% 0 mm
03:55 13.8 °C 10.8 °C 1011.1 hPa WSW 3.2 km/h 6.4 km/h 82% 0 mm
04:00 13.7 °C 10.7 °C 1011.1 hPa WSW 1.6 km/h 4.8 km/h 82% 0 mm
04:05 13.6 °C 10.6 °C 1011.1 hPa SW 1.6 km/h 4.8 km/h 82% 0 mm
04:10 13.6 °C 10.7 °C 1011.1 hPa Calm   4.8 km/h 83% 0 mm
04:15 13.4 °C 10.6 °C 1011.1 hPa Calm     83% 0 mm
04:20 13.3 °C 10.4 °C 1011.1 hPa Calm   4.8 km/h 83% 0 mm
04:25 13.2 °C 10.3 °C 1011.1 hPa Calm   4.8 km/h 83% 0 mm
04:30 13.1 °C 10.4 °C 1011.4 hPa Calm     84% 0 mm
04:35 13.1 °C 10.4 °C 1011.7 hPa Calm     84% 0 mm
04:40 13.1 °C 10.4 °C 1011.7 hPa Calm     84% 0 mm
04:45 13.2 °C 10.5 °C 1011.7 hPa Calm     84% 0 mm
04:50 13.3 °C 10.7 °C 1012.1 hPa Calm     84% 0 mm
04:55 13.4 °C 10.7 °C 1012.1 hPa Calm   1.6 km/h 84% 0 mm
05:00 13.5 °C 10.8 °C 1012.1 hPa Calm   3.2 km/h 84% 0 mm
05:05 13.6 °C 10.9 °C 1012.4 hPa Calm   3.2 km/h 84% 0 mm
05:10 13.6 °C 10.9 °C 1012.4 hPa Calm     84% 0 mm
05:15 13.7 °C 11 °C 1012.4 hPa Calm     84% 0 mm
05:20 13.7 °C 11 °C 1012.8 hPa Calm     84% 0 mm
05:25 13.7 °C 11 °C 1012.8 hPa Calm     84% 0 mm
05:30 13.7 °C 11.1 °C 1012.8 hPa Calm     84% 0 mm
05:35 13.9 °C 11.2 °C 1012.8 hPa Calm     84% 0 mm
05:40 14 °C 11.2 °C 1012.8 hPa Calm     83% 0 mm
05:45 14.1 °C 11.4 °C 1012.8 hPa Calm     84% 0 mm
05:50 14.3 °C 11.4 °C 1013.1 hPa Calm     83% 0 mm
05:55 14.7 °C 12 °C 1013.1 hPa WSW 1.6 km/h 14.5 km/h 84% 0 mm
06:00 15.3 °C 12.2 °C 1013.1 hPa WSW 3.2 km/h 14.5 km/h 82% 0 mm
06:05 15.7 °C 12.4 °C 1013.1 hPa WSW 3.2 km/h 12.9 km/h 81% 0 mm
06:10 15.6 °C 11.9 °C 1013.1 hPa SW 3.2 km/h 9.7 km/h 79% 0 mm
06:15 15.2 °C 11.8 °C 1013.4 hPa WSW 1.6 km/h 6.4 km/h 80% 0 mm
06:20 15.1 °C 11.9 °C 1013.4 hPa SW 1.6 km/h 6.4 km/h 81% 0 mm
06:25 14.7 °C 11.4 °C 1013.4 hPa SW 3.2 km/h 9.7 km/h 81% 0 mm
06:30 14.4 °C 11.4 °C 1013.4 hPa SSW 4.8 km/h 9.7 km/h 82% 0 mm
06:35 14.4 °C 11.6 °C 1013.4 hPa SSW 3.2 km/h 9.7 km/h 83% 0 mm
06:40 14.4 °C 11.6 °C 1013.8 hPa SW 1.6 km/h 4.8 km/h 83% 0 mm
06:45 14.5 °C 11.7 °C 1013.8 hPa Calm   4.8 km/h 83% 0 mm
06:50 14.6 °C 11.7 °C 1013.8 hPa SW 1.6 km/h 4.8 km/h 83% 0 mm
06:55 14.8 °C 11.7 °C 1013.8 hPa West 1.6 km/h 4.8 km/h 82% 0 mm
07:00 15 °C 11.4 °C 1013.8 hPa WSW 4.8 km/h 16.1 km/h 79% 0 mm
07:05 15.1 °C 11.1 °C 1013.8 hPa West 4.8 km/h 17.7 km/h 77% 0 mm
07:10 15 °C 10.8 °C 1013.8 hPa West 8 km/h 14.5 km/h 76% 0 mm
07:15 14.9 °C 10.7 °C 1013.8 hPa WNW 12.9 km/h 16.1 km/h 76% 0 mm
07:20 14.8 °C 10.6 °C 1014.1 hPa West 8 km/h 16.1 km/h 76% 0 mm
07:25 14.7 °C 10.6 °C 1014.1 hPa West 8 km/h 14.5 km/h 76% 0 mm
07:30 14.7 °C 10.3 °C 1014.4 hPa West 8 km/h 16.1 km/h 75% 0 mm
07:35 14.6 °C 10.4 °C 1014.1 hPa WSW 6.4 km/h 19.3 km/h 76% 0 mm
07:40 14.6 °C 10.4 °C 1014.4 hPa West 8 km/h 14.5 km/h 76% 0 mm
07:45 14.4 °C 10.3 °C 1014.4 hPa SW 1.6 km/h 14.5 km/h 76% 0 mm
07:50 14.3 °C 10.2 °C 1014.8 hPa West 8 km/h 16.1 km/h 76% 0 mm
07:55 14.2 °C 10.1 °C 1014.8 hPa West 8 km/h 19.3 km/h 76% 0 mm
08:00 14.1 °C 9.9 °C 1014.8 hPa WNW 8 km/h 19.3 km/h 76% 0 mm
08:05 13.9 °C 9.9 °C 1015.1 hPa West 8 km/h 14.5 km/h 77% 0 mm
08:10 13.7 °C 9.5 °C 1015.1 hPa WNW 12.9 km/h 17.7 km/h 76% 0 mm
08:15 13.4 °C 9.5 °C 1015.1 hPa WNW 9.7 km/h 17.7 km/h 77% 0 mm
08:20 13.3 °C 9.4 °C 1015.5 hPa WNW 9.7 km/h 16.1 km/h 77% 0 mm
08:25 13.4 °C 9.5 °C 1015.5 hPa WNW 8 km/h 17.7 km/h 77% 0 mm
08:30 13.5 °C 9.6 °C 1015.5 hPa WNW 6.4 km/h 16.1 km/h 77% 0 mm
08:35 13.5 °C 9.3 °C 1015.8 hPa NW 8 km/h 16.1 km/h 76% 0 mm
08:40 13.6 °C 9.4 °C 1015.8 hPa SW 9.7 km/h 12.9 km/h 76% 0 mm
08:45 13.7 °C 9.6 °C 1015.8 hPa West 6.4 km/h 12.9 km/h 76% 0 mm
08:50 13.8 °C 9.5 °C 1015.8 hPa West 6.4 km/h 14.5 km/h 75% 0 mm
08:55 13.9 °C 9.3 °C 1015.8 hPa WNW 11.3 km/h 14.5 km/h 74% 0 mm
09:00 13.8 °C 9.5 °C 1016.1 hPa WNW 4.8 km/h 16.1 km/h 75% 0 mm
09:05 13.9 °C 9.4 °C 1016.1 hPa West 3.2 km/h 11.3 km/h 74% 0 mm
09:10 13.8 °C 9 °C 1016.1 hPa West 11.3 km/h 19.3 km/h 73% 0 mm
09:15 13.6 °C 8.8 °C 1016.1 hPa West 6.4 km/h 19.3 km/h 73% 0 mm
09:20 13.4 °C 8.8 °C 1016.1 hPa WNW 6.4 km/h 14.5 km/h 74% 0 mm
09:25 13.4 °C 8.8 °C 1016.1 hPa WNW 6.4 km/h 14.5 km/h 74% 0 mm
09:30 13.3 °C 8.6 °C 1016.1 hPa NW 4.8 km/h 16.1 km/h 73% 0 mm
09:35 13.5 °C 8.9 °C 1016.5 hPa WNW 6.4 km/h 16.1 km/h 74% 0 mm
09:40 13.7 °C 8.9 °C 1016.5 hPa West 6.4 km/h 11.3 km/h 73% 0 mm
09:45 13.5 °C 8.6 °C 1016.5 hPa NW 3.2 km/h 12.9 km/h 72% 0 mm
09:50 13.2 °C 8.4 °C 1016.5 hPa NW 8 km/h 14.5 km/h 73% 0 mm
09:55 13.3 °C 8.6 °C 1016.5 hPa West 6.4 km/h 12.9 km/h 73% 0 mm
10:00 13.4 °C 8.7 °C 1016.5 hPa NW 9.7 km/h 12.9 km/h 73% 0 mm
10:05 13.7 °C 8.7 °C 1016.5 hPa NNW 3.2 km/h 14.5 km/h 72% 0 mm
10:10 13.7 °C 8.6 °C 1016.5 hPa NW 9.7 km/h 12.9 km/h 71% 0 mm
10:15 13.7 °C 8.3 °C 1016.5 hPa NNW 6.4 km/h 14.5 km/h 70% 0 mm
10:20 13.6 °C 8.4 °C 1016.8 hPa NW 8 km/h 14.5 km/h 71% 0 mm
10:25 13.1 °C 8.1 °C 1016.8 hPa NNW 6.4 km/h 14.5 km/h 72% 0 mm
10:30 13 °C 8.3 °C 1016.8 hPa NNW 6.4 km/h 14.5 km/h 73% 0 mm
10:35 13.2 °C 8.4 °C 1017.2 hPa NW 6.4 km/h 14.5 km/h 73% 0 mm
10:40 13.2 °C 8.2 °C 1017.2 hPa NW 6.4 km/h 14.5 km/h 72% 0 mm
10:45 13.6 °C 8.4 °C 1017.2 hPa NW 6.4 km/h 19.3 km/h 71% 0 mm
10:50 14.4 °C 9.2 °C 1017.2 hPa NNW 17.7 km/h 17.7 km/h 71% 0 mm
10:55 13.7 °C 8.3 °C 1017.5 hPa NW 16.1 km/h 17.7 km/h 70% 0 mm
11:00 13.6 °C 8 °C 1017.5 hPa NW 8 km/h 16.1 km/h 69% 0 mm
11:05 14.2 °C 9.4 °C 1017.5 hPa NNW 4.8 km/h 12.9 km/h 73% 0 mm
11:10 13.9 °C 7.8 °C 1017.5 hPa NW 6.4 km/h 12.9 km/h 67% 0 mm
11:15 13.5 °C 7.7 °C 1017.5 hPa NNW 4.8 km/h 12.9 km/h 68% 0 mm
11:20 13.4 °C 8.2 °C 1017.8 hPa NNW 4.8 km/h 12.9 km/h 71% 0 mm
11:25 13.5 °C 8.1 °C 1017.8 hPa NNW 4.8 km/h 16.1 km/h 70% 0 mm
11:30 13.2 °C 7.7 °C 1017.8 hPa NNW 3.2 km/h 11.3 km/h 69% 0 mm
11:35 13.3 °C 7.8 °C 1017.8 hPa WNW 4.8 km/h 12.9 km/h 69% 0 mm
11:40 13.9 °C 8.3 °C 1017.8 hPa North 6.4 km/h 16.1 km/h 69% 0 mm
11:45 14 °C 8.2 °C 1017.8 hPa NW 4.8 km/h 16.1 km/h 68% 0 mm
11:50 13.6 °C 7.3 °C 1018.2 hPa NW 6.4 km/h 20.9 km/h 66% 0 mm
11:55 13.7 °C 7.5 °C 1017.8 hPa NW 6.4 km/h 20.9 km/h 66% 0 mm
12:00 13.9 °C 8.3 °C 1017.8 hPa North 3.2 km/h 17.7 km/h 69% 0 mm
12:05 13.9 °C 7.9 °C 1017.8 hPa NNW 6.4 km/h 16.1 km/h 67% 0 mm
12:10 13.9 °C 7.4 °C 1018.2 hPa North 3.2 km/h 11.3 km/h 65% 0 mm
12:15 14.2 °C 7.9 °C 1018.2 hPa NNW 4.8 km/h 12.9 km/h 66% 0 mm
12:20 14.1 °C 8 °C 1018.2 hPa NNW 4.8 km/h 12.9 km/h 67% 0 mm
12:25 13.9 °C 7.6 °C 1018.2 hPa NW 4.8 km/h 12.9 km/h 66% 0 mm
12:30 14.1 °C 8 °C 1018.2 hPa North 4.8 km/h 12.9 km/h 67% 0 mm
12:35 14.1 °C 7.8 °C 1018.5 hPa NNE 8 km/h 16.1 km/h 66% 0 mm
12:40 14.1 °C 7.6 °C 1018.5 hPa NW 8 km/h 16.1 km/h 65% 0 mm
12:45 14.4 °C 8.2 °C 1018.5 hPa NW 8 km/h 16.1 km/h 66% 0 mm
12:50 14.8 °C 8.5 °C 1018.8 hPa WNW 6.4 km/h 14.5 km/h 66% 0 mm
12:55 14.6 °C 7.8 °C 1018.5 hPa WNW 6.4 km/h 12.9 km/h 64% 0 mm
13:00 14.1 °C 7.2 °C 1018.5 hPa NW 6.4 km/h 14.5 km/h 63% 0 mm
13:05 14.2 °C 7.2 °C 1018.5 hPa WNW 3.2 km/h 16.1 km/h 63% 0 mm
13:10 14.1 °C 7.2 °C 1018.8 hPa NW 6.4 km/h 16.1 km/h 63% 0 mm
13:15 14.1 °C 7.6 °C 1018.8 hPa West 8 km/h 14.5 km/h 65% 0 mm
13:20 14.2 °C 7.3 °C 1018.8 hPa NNW 9.7 km/h 17.7 km/h 63% 0 mm
13:25 13.9 °C 7.4 °C 1018.8 hPa West 12.9 km/h 17.7 km/h 65% 0 mm
13:30 13.7 °C 7 °C 1018.8 hPa WSW 6.4 km/h 12.9 km/h 64% 0 mm
13:35 13.7 °C 7.1 °C 1018.8 hPa NW 6.4 km/h 12.9 km/h 64% 0 mm
13:40 13.8 °C 7.1 °C 1018.8 hPa NW 4.8 km/h 12.9 km/h 64% 0 mm
13:45 14.2 °C 7.7 °C 1018.8 hPa NW 4.8 km/h 9.7 km/h 65% 0 mm
13:50 14.1 °C 7.3 °C 1018.8 hPa NW 3.2 km/h 9.7 km/h 64% 0 mm
13:55 13.7 °C 7.2 °C 1018.8 hPa Calm   12.9 km/h 65% 0 mm
14:00 13.9 °C 7.6 °C 1018.8 hPa NW 4.8 km/h 11.3 km/h 66% 0 mm
14:05 13.8 °C 7.1 °C 1018.8 hPa NW 4.8 km/h 12.9 km/h 64% 0 mm
14:10 13.8 °C 7.6 °C 1018.5 hPa NW 6.4 km/h 12.9 km/h 66% 0 mm
14:15 13.9 °C 6.9 °C 1018.5 hPa NNW 4.8 km/h 9.7 km/h 63% 0 mm
14:20 13.6 °C 7.4 °C 1018.8 hPa North 4.8 km/h 11.3 km/h 66% 0 mm
14:25 13.7 °C 7 °C 1018.8 hPa NNW 4.8 km/h 11.3 km/h 64% 0 mm
14:30 13.8 °C 7.4 °C 1018.8 hPa NW 6.4 km/h 12.9 km/h 65% 0 mm
14:35 14 °C 7.3 °C 1018.8 hPa NW 6.4 km/h 14.5 km/h 64% 0 mm
14:40 14.4 °C 7.7 °C 1018.8 hPa WNW 8 km/h 16.1 km/h 64% 0 mm
14:45 14.3 °C 7.1 °C 1019.2 hPa NNW 4.8 km/h 12.9 km/h 62% 0 mm
14:50 14.1 °C 7.6 °C 1019.2 hPa NNW 6.4 km/h 16.1 km/h 65% 0 mm
14:55 13.9 °C 7.4 °C 1019.2 hPa WNW 4.8 km/h 12.9 km/h 65% 0 mm
15:00 13.7 °C 7.1 °C 1019.2 hPa West 6.4 km/h 17.7 km/h 64% 0 mm
15:05 13.6 °C 6.9 °C 1019.2 hPa NW 8 km/h 17.7 km/h 64% 0 mm
15:10 14 °C 7.3 °C 1019.5 hPa NW 8 km/h 14.5 km/h 64% 0 mm
15:15 13.9 °C 7.2 °C 1019.5 hPa WNW 6.4 km/h 17.7 km/h 64% 0 mm
15:20 13.7 °C 6.7 °C 1019.5 hPa WNW 8 km/h 17.7 km/h 63% 0 mm
15:25 13.8 °C 7.1 °C 1019.5 hPa WNW 6.4 km/h 16.1 km/h 64% 0 mm
15:30 13.9 °C 7.2 °C 1019.5 hPa WNW 6.4 km/h 14.5 km/h 64% 0 mm
15:35 14.1 °C 7.3 °C 1019.9 hPa WNW 6.4 km/h 12.9 km/h 64% 0 mm
15:40 13.9 °C 6.9 °C 1019.9 hPa NW 3.2 km/h 11.3 km/h 63% 0 mm
15:45 14.1 °C 7.1 °C 1019.9 hPa WNW 4.8 km/h 12.9 km/h 63% 0 mm
15:50 13.8 °C 7.1 °C 1019.9 hPa NW 12.9 km/h 17.7 km/h 64% 0 mm
15:55 13.9 °C 7.6 °C 1019.5 hPa West 4.8 km/h 16.1 km/h 66% 0 mm
16:00 14.2 °C 7.5 °C 1019.5 hPa West 8 km/h 16.1 km/h 64% 0 mm
16:05 14 °C 7.3 °C 1019.9 hPa West 6.4 km/h 12.9 km/h 64% 0 mm
16:10 13.9 °C 7.2 °C 1019.9 hPa NW 4.8 km/h 11.3 km/h 64% 0 mm
16:15 13.4 °C 6.8 °C 1019.9 hPa NNW 3.2 km/h 9.7 km/h 64% 0 mm
16:20 13.6 °C 7.8 °C 1019.5 hPa North 1.6 km/h 9.7 km/h 68% 0 mm
16:25 13.6 °C 7.2 °C 1019.9 hPa North 1.6 km/h 8 km/h 65% 0 mm
16:30 13.8 °C 7.6 °C 1019.9 hPa NNW 3.2 km/h 9.7 km/h 66% 0 mm
16:35 13.8 °C 7.1 °C 1019.5 hPa NNW 4.8 km/h 9.7 km/h 64% 0 mm
16:40 13.7 °C 7.2 °C 1019.5 hPa NNW 3.2 km/h 11.3 km/h 65% 0 mm
16:45 13.6 °C 7.4 °C 1019.5 hPa North 3.2 km/h 11.3 km/h 66% 0 mm
16:50 13.4 °C 7.2 °C 1019.5 hPa NNW 1.6 km/h 8 km/h 66% 0 mm
16:55 13.7 °C 7.7 °C 1019.5 hPa North 3.2 km/h 4.8 km/h 67% 0 mm
17:00 14.1 °C 7.6 °C 1019.2 hPa North 1.6 km/h 4.8 km/h 65% 0 mm
17:05 14.5 °C 7.8 °C 1019.5 hPa North 4.8 km/h 9.7 km/h 64% 0 mm
17:10 14.6 °C 8.5 °C 1019.5 hPa NNE 4.8 km/h 8 km/h 67% 0 mm
17:15 14.5 °C 7.8 °C 1019.5 hPa NE 3.2 km/h 8 km/h 64% 0 mm
17:20 14.3 °C 7.8 °C 1019.5 hPa NNE 4.8 km/h 8 km/h 65% 0 mm
17:25 14.2 °C 7.4 °C 1019.2 hPa North 3.2 km/h 11.3 km/h 64% 0 mm
17:30 14.1 °C 7.6 °C 1019.2 hPa NNW 4.8 km/h 11.3 km/h 65% 0 mm
17:35 13.8 °C 7.6 °C 1019.5 hPa NNW 4.8 km/h 12.9 km/h 66% 0 mm
17:40 13.8 °C 7.6 °C 1019.5 hPa North 4.8 km/h 12.9 km/h 66% 0 mm
17:45 13.6 °C 7.4 °C 1019.5 hPa North 4.8 km/h 12.9 km/h 66% 0 mm
17:50 13.6 °C 7.3 °C 1019.5 hPa North 4.8 km/h 12.9 km/h 66% 0 mm
17:55 13.5 °C 7.5 °C 1019.2 hPa North 4.8 km/h 12.9 km/h 67% 0 mm
18:00 13.6 °C 7.6 °C 1019.2 hPa NNE 4.8 km/h 8 km/h 67% 0 mm
18:05 13.4 °C 7.4 °C 1019.5 hPa North 3.2 km/h 12.9 km/h 67% 0 mm
18:10 13.5 °C 7.5 °C 1019.2 hPa NNW 6.4 km/h 11.3 km/h 67% 0 mm
18:15 13.4 °C 7.4 °C 1019.5 hPa North 3.2 km/h 12.9 km/h 67% 0 mm
18:20 13.5 °C 7.5 °C 1019.5 hPa North 4.8 km/h 6.4 km/h 67% 0 mm
18:25 13.4 °C 7.2 °C 1019.5 hPa NNW 4.8 km/h 12.9 km/h 66% 0 mm
18:30 13.4 °C 7.2 °C 1019.9 hPa NNW 4.8 km/h 12.9 km/h 66% 0 mm
18:35 13.8 °C 7.8 °C 1019.9 hPa North 3.2 km/h 11.3 km/h 67% 0 mm
18:40 13.6 °C 7.4 °C 1019.9 hPa NNW 1.6 km/h 8 km/h 66% 0 mm
18:45 13.4 °C 6.7 °C 1019.9 hPa NW 1.6 km/h 6.4 km/h 64% 0 mm
18:50 13.6 °C 7.3 °C 1019.5 hPa ENE 4.8 km/h 8 km/h 66% 0 mm
18:55 13.6 °C 7.4 °C 1019.5 hPa ENE 3.2 km/h 11.3 km/h 66% 0 mm
19:00 13.7 °C 7.1 °C 1019.5 hPa NE 4.8 km/h 12.9 km/h 64% 0 mm
19:05 13.6 °C 7.1 °C 1019.5 hPa NE 4.8 km/h 9.7 km/h 65% 0 mm
19:10 13.5 °C 7.1 °C 1019.9 hPa NE 8 km/h 14.5 km/h 65% 0 mm
19:15 13.4 °C 7 °C 1019.9 hPa East 3.2 km/h 11.3 km/h 65% 0 mm
19:20 13.3 °C 7.1 °C 1019.9 hPa NE 3.2 km/h 12.9 km/h 66% 0 mm
19:25 13.1 °C 7.1 °C 1019.9 hPa NE 3.2 km/h 12.9 km/h 67% 0 mm
19:30 13.1 °C 7.1 °C 1020.2 hPa NE 1.6 km/h 8 km/h 67% 0 mm
19:35 13.2 °C 7.2 °C 1019.9 hPa NE 4.8 km/h 11.3 km/h 67% 0 mm
19:40 13.2 °C 7.2 °C 1019.9 hPa NE 4.8 km/h 12.9 km/h 67% 0 mm
19:45 13.2 °C 7.2 °C 1019.9 hPa NNE 3.2 km/h 14.5 km/h 67% 0 mm
19:50 13.2 °C 7 °C 1020.2 hPa NE 6.4 km/h 12.9 km/h 66% 0 mm
19:55 13.3 °C 7.3 °C 1020.5 hPa NE 4.8 km/h 12.9 km/h 67% 0 mm
20:00 13.2 °C 7.2 °C 1020.2 hPa NE 4.8 km/h 12.9 km/h 67% 0 mm
20:05 13.2 °C 7.2 °C 1020.5 hPa NE 3.2 km/h 8 km/h 67% 0 mm
20:10 13.2 °C 7.2 °C 1020.5 hPa NE 3.2 km/h 11.3 km/h 67% 0 mm
20:15 13.2 °C 7.4 °C 1020.5 hPa NE 3.2 km/h 8 km/h 68% 0 mm
20:20 13.1 °C 7.1 °C 1020.9 hPa NE 3.2 km/h 6.4 km/h 67% 0 mm
20:25 13.1 °C 7.3 °C 1020.9 hPa NE 1.6 km/h 6.4 km/h 68% 0 mm
20:30 13 °C 7.2 °C 1020.9 hPa NNE 3.2 km/h 8 km/h 68% 0 mm
20:35 13.1 °C 7.3 °C 1020.9 hPa NE 3.2 km/h 11.3 km/h 68% 0 mm
20:40 13 °C 7.2 °C 1020.5 hPa NE 6.4 km/h 12.9 km/h 68% 0 mm
20:45 12.9 °C 7.2 °C 1020.5 hPa NE 8 km/h 12.9 km/h 68% 0 mm
20:50 12.9 °C 7.2 °C 1020.5 hPa ENE 4.8 km/h 8 km/h 68% 0 mm
20:55 12.9 °C 7.3 °C 1020.9 hPa NNE 1.6 km/h 8 km/h 69% 0 mm
21:00 12.8 °C 7.3 °C 1020.9 hPa NNE 3.2 km/h 8 km/h 69% 0 mm
21:05 12.8 °C 7.2 °C 1020.9 hPa North 3.2 km/h 6.4 km/h 69% 0 mm
21:10 12.7 °C 7.2 °C 1020.9 hPa NNE 3.2 km/h 8 km/h 69% 0 mm
21:15 12.8 °C 7.4 °C 1020.9 hPa NE 4.8 km/h 9.7 km/h 70% 0 mm
21:20 12.7 °C 7.2 °C 1020.9 hPa NE 6.4 km/h 14.5 km/h 69% 0 mm
21:25 12.7 °C 7.1 °C 1021.2 hPa NE 4.8 km/h 14.5 km/h 69% 0 mm
21:30 12.6 °C 7.1 °C 1021.6 hPa NE 1.6 km/h 4.8 km/h 69% 0 mm
21:35 12.6 °C 7.3 °C 1021.6 hPa Calm   6.4 km/h 70% 0 mm
21:40 12.6 °C 7.1 °C 1021.6 hPa ENE 3.2 km/h 8 km/h 69% 0 mm
21:45 12.6 °C 7 °C 1021.6 hPa NE 3.2 km/h 6.4 km/h 69% 0 mm
21:50 12.6 °C 7.1 °C 1021.6 hPa Calm   6.4 km/h 69% 0 mm
21:55 12.6 °C 7.1 °C 1021.9 hPa ENE 1.6 km/h 6.4 km/h 69% 0 mm
22:00 12.6 °C 7.3 °C 1021.9 hPa Calm   4.8 km/h 70% 0 mm
22:05 12.6 °C 7 °C 1021.9 hPa NE 1.6 km/h 8 km/h 69% 0 mm
22:10 12.6 °C 7.1 °C 1021.9 hPa ENE 3.2 km/h 8 km/h 69% 0 mm
22:15 12.6 °C 7.1 °C 1021.9 hPa ENE 3.2 km/h 11.3 km/h 69% 0 mm
22:20 12.6 °C 7 °C 1022.2 hPa ENE 3.2 km/h 11.3 km/h 69% 0 mm
22:25 12.5 °C 7.2 °C 1022.2 hPa NE 3.2 km/h 6.4 km/h 70% 0 mm
22:30 12.6 °C 7 °C 1021.9 hPa ENE 3.2 km/h 9.7 km/h 69% 0 mm
22:35 12.6 °C 7 °C 1022.2 hPa ENE 4.8 km/h 11.3 km/h 69% 0 mm
22:40 12.6 °C 7 °C 1022.2 hPa NE 3.2 km/h 9.7 km/h 69% 0 mm
22:45 12.5 °C 6.9 °C 1022.2 hPa NE 1.6 km/h 8 km/h 69% 0 mm
22:50 12.5 °C 7.2 °C 1022.6 hPa NE 1.6 km/h 3.2 km/h 70% 0 mm
22:55 12.4 °C 7.1 °C 1022.6 hPa Calm   4.8 km/h 70% 0 mm
23:00 12.4 °C 7.1 °C 1022.6 hPa NE 1.6 km/h 4.8 km/h 70% 0 mm
23:05 12.4 °C 7.1 °C 1022.2 hPa NE 1.6 km/h 6.4 km/h 70% 0 mm
23:10 12.4 °C 7.1 °C 1022.2 hPa NE 1.6 km/h 6.4 km/h 70% 0 mm
23:15 12.4 °C 7.1 °C 1022.2 hPa NE 3.2 km/h 8 km/h 70% 0 mm
23:20 12.4 °C 7.1 °C 1022.2 hPa NE 3.2 km/h 8 km/h 70% 0 mm
23:25 12.4 °C 7.1 °C 1022.2 hPa Calm   4.8 km/h 70% 0 mm
23:30 12.4 °C 7.3 °C 1022.2 hPa NE 3.2 km/h 6.4 km/h 71% 0 mm
23:35 12.4 °C 7.3 °C 1022.2 hPa NE 1.6 km/h 4.8 km/h 71% 0 mm
23:40 12.4 °C 7.3 °C 1022.6 hPa Calm   4.8 km/h 71% 0 mm
23:45 12.4 °C 7.1 °C 1022.2 hPa Calm   4.8 km/h 70% 0 mm
23:50 12.4 °C 7.3 °C 1022.6 hPa NE 1.6 km/h 8 km/h 71% 0 mm
23:55 12.3 °C 7 °C 1022.6 hPa NE 1.6 km/h 8 km/h 70% 0 mm
Buffalo, New York, USA
Compliments of Weather Underground - 2.5 mb